Time;durP1;ratioP1;P1;durP2;ratioP2;P2;SDS_P1;SDS_P2;PMS_P1;PMS_P2;Temp;Humidity;BMP_temperature;BMP_pressure;BME280_temperature;BME280_humidity;BME280_pressure;Samples;Min_cycle;Max_cycle;Signal;HPM_P1;HPM_P2
2022/12/12 00:01:34;;;;;;;34.10;14.20;;;-5.30;99.90;;;;;;5065878;28;20354;-76
2022/12/12 00:04:00;;;;;;;30.73;11.60;;;-5.30;99.90;;;;;;5067364;28;20031;-76
2022/12/12 00:06:26;;;;;;;37.33;13.95;;;;;;;;;;5068463;28;20028;-77
2022/12/12 00:08:52;;;;;;;30.33;13.32;;;-5.20;99.90;;;;;;5068923;28;20063;-77
2022/12/12 00:11:19;;;;;;;36.80;13.85;;;-5.30;99.90;;;;;;5068457;28;20020;-78
2022/12/12 00:13:45;;;;;;;38.17;14.35;;;-5.30;99.90;;;;;;5069746;28;20077;-77
2022/12/12 00:16:12;;;;;;;36.88;12.52;;;-5.40;99.90;;;;;;5069364;28;20139;-76
2022/12/12 00:18:38;;;;;;;30.10;11.85;;;-5.40;99.90;;;;;;5068925;28;20033;-75
2022/12/12 00:21:10;;;;;;;41.33;13.63;;;-5.50;99.90;;;;;;5067460;28;20409;-76
2022/12/12 00:23:36;;;;;;;35.78;13.73;;;;;;;;;;5068392;28;20505;-76
2022/12/12 00:26:04;;;;;;;40.58;15.93;;;-5.40;99.90;;;;;;5067840;28;20350;-78
2022/12/12 00:28:30;;;;;;;36.13;13.40;;;;;;;;;;5069076;28;20032;-76
2022/12/12 00:30:56;;;;;;;33.92;13.90;;;;;;;;;;5068966;28;20041;-77
2022/12/12 00:33:22;;;;;;;40.65;14.23;;;;;;;;;;5067257;28;20050;-76
2022/12/12 00:35:50;;;;;;;33.33;14.07;;;-5.40;99.90;;;;;;5068788;28;20465;-76
2022/12/12 00:38:17;;;;;;;35.20;14.07;;;-5.30;99.90;;;;;;5068502;28;20448;-76
2022/12/12 00:40:43;;;;;;;39.53;15.27;;;;;;;;;;5070177;28;20112;-77
2022/12/12 00:43:09;;;;;;;34.65;13.80;;;-5.40;99.90;;;;;;5068586;28;20036;-77
2022/12/12 00:45:36;;;;;;;41.70;15.00;;;-5.40;99.90;;;;;;5067666;28;20134;-77
2022/12/12 00:48:03;;;;;;;43.42;13.45;;;-5.40;99.90;;;;;;5068506;28;20021;-76
2022/12/12 00:50:29;;;;;;;38.60;16.65;;;-5.40;99.90;;;;;;5067145;28;20020;-76
2022/12/12 00:52:56;;;;;;;39.20;16.55;;;-5.20;99.90;;;;;;5066319;28;20035;-76
2022/12/12 00:55:23;;;;;;;40.60;16.50;;;-5.40;99.90;;;;;;5066875;28;20023;-76
2022/12/12 00:57:49;;;;;;;31.35;13.40;;;-5.40;99.90;;;;;;5069846;28;20431;-77
2022/12/12 01:00:16;;;;;;;38.25;13.73;;;-5.40;99.90;;;;;;5063780;28;20017;-74
2022/12/12 01:02:42;;;;;;;37.50;15.30;;;-5.50;99.90;;;;;;5052259;28;20044;-74
2022/12/12 01:05:08;;;;;;;39.17;16.42;;;-5.40;99.90;;;;;;5048418;28;20025;-73
2022/12/12 01:07:34;;;;;;;41.00;14.65;;;-5.50;99.90;;;;;;5047861;28;20043;-73
2022/12/12 01:10:00;;;;;;;37.13;14.88;;;-5.50;99.90;;;;;;5050795;28;20028;-74
2022/12/12 01:12:25;;;;;;;35.92;13.55;;;-5.40;99.90;;;;;;5050561;28;20116;-72
2022/12/12 01:14:51;;;;;;;39.63;15.13;;;-5.30;99.90;;;;;;5050685;28;20021;-73
2022/12/12 01:17:16;;;;;;;35.40;14.77;;;-5.40;99.90;;;;;;5050790;28;20025;-73
2022/12/12 01:19:42;;;;;;;37.03;15.35;;;-5.40;99.90;;;;;;5050971;28;20100;-73
2022/12/12 01:22:08;;;;;;;43.83;15.27;;;-5.40;99.90;;;;;;5048893;28;20041;-73
2022/12/12 01:24:34;;;;;;;34.03;13.65;;;;;;;;;;5048668;28;20021;-73
2022/12/12 01:27:00;;;;;;;39.70;17.20;;;-5.20;99.90;;;;;;5049789;28;20025;-73
2022/12/12 01:29:26;;;;;;;39.85;16.40;;;-5.30;99.90;;;;;;5049724;28;20028;-74
2022/12/12 01:31:52;;;;;;;46.83;15.27;;;-5.10;99.90;;;;;;5050150;28;20029;-73
2022/12/12 01:34:18;;;;;;;37.08;13.23;;;-5.30;99.90;;;;;;5049892;28;20453;-73
2022/12/12 01:36:43;;;;;;;45.00;13.88;;;-5.00;99.90;;;;;;5050097;28;20526;-73
2022/12/12 01:39:09;;;;;;;34.17;12.73;;;;;;;;;;5049688;28;20041;-73
2022/12/12 01:41:35;;;;;;;38.85;12.75;;;-5.30;99.90;;;;;;5048451;28;20045;-74
2022/12/12 01:44:03;;;;;;;48.85;15.10;;;-5.40;99.90;;;;;;5049661;28;20098;-75
2022/12/12 01:46:58;;;;;;;38.13;14.27;;;-5.50;99.90;;;;;;5048671;28;20112;-74
2022/12/12 01:49:26;;;;;;;36.55;15.05;;;-5.40;99.90;;;;;;5040913;28;20434;-73
2022/12/12 01:51:56;;;;;;;37.60;13.20;;;-5.30;99.90;;;;;;5049636;28;20032;-73
2022/12/12 01:54:27;;;;;;;29.58;13.68;;;-5.20;99.90;;;;;;5049661;28;20037;-74
2022/12/12 01:56:55;;;;;;;34.20;14.65;;;-5.40;99.90;;;;;;5049751;28;20359;-73
2022/12/12 01:59:23;;;;;;;42.83;16.92;;;-5.40;99.90;;;;;;5049655;28;20118;-74
2022/12/12 02:01:49;;;;;;;35.13;15.45;;;;;;;;;;5048333;28;20060;-74
2022/12/12 02:04:16;;;;;;;31.42;14.75;;;-5.30;99.90;;;;;;5049568;28;20025;-73
2022/12/12 02:06:42;;;;;;;42.03;14.82;;;;;;;;;;5049782;28;20489;-73
2022/12/12 02:09:12;;;;;;;39.35;14.30;;;-5.20;99.90;;;;;;5048624;28;20032;-74
2022/12/12 02:11:46;;;;;;;47.25;17.83;;;-5.40;99.90;;;;;;5049544;28;20039;-73
2022/12/12 02:14:32;;;;;;;46.67;16.65;;;-5.00;99.90;;;;;;5048113;28;20075;-73
2022/12/12 02:17:16;;;;;;;45.22;16.25;;;-5.30;99.90;;;;;;5048093;28;20090;-74
2022/12/12 02:20:34;;;;;;;39.88;13.95;;;-5.50;99.90;;;;;;5049610;28;20037;-72
2022/12/12 02:23:27;;;;;;;38.33;17.25;;;-5.50;99.90;;;;;;5047887;28;20048;-73
2022/12/12 02:26:38;;;;;;;38.22;15.38;;;-5.50;99.90;;;;;;5048558;28;20089;-73
2022/12/12 02:29:25;;;;;;;35.78;14.07;;;-5.60;99.90;;;;;;5046741;28;20086;-73
2022/12/12 02:32:23;;;;;;;30.60;13.45;;;-5.40;99.90;;;;;;5047874;28;20044;-74
2022/12/12 02:35:14;;;;;;;34.67;14.88;;;-5.60;99.90;;;;;;5048375;28;20027;-74
2022/12/12 02:38:09;;;;;;;36.22;13.32;;;-5.50;99.90;;;;;;5047804;28;20041;-74
2022/12/12 02:40:49;;;;;;;36.05;14.60;;;-5.60;99.90;;;;;;5046268;28;20078;-74
2022/12/12 02:43:32;;;;;;;36.67;16.80;;;-5.50;99.90;;;;;;5047197;28;20112;-73
2022/12/12 02:46:17;;;;;;;36.70;14.02;;;-5.50;99.90;;;;;;5051567;28;20021;-73
2022/12/12 02:48:53;;;;;;;36.25;13.45;;;-5.30;99.90;;;;;;5051038;28;20032;-73
2022/12/12 02:51:19;;;;;;;38.92;13.60;;;-5.40;99.90;;;;;;5050911;28;20531;-74
2022/12/12 02:53:45;;;;;;;36.10;14.27;;;;;;;;;;5050815;28;20345;-73
2022/12/12 02:56:42;;;;;;;39.78;13.13;;;-5.40;99.90;;;;;;5051567;28;20090;-73
2022/12/12 02:59:11;;;;;;;33.42;13.18;;;-5.40;99.90;;;;;;5051716;28;20033;-73
2022/12/12 03:02:21;;;;;;;36.50;15.15;;;-5.50;99.90;;;;;;5052791;28;20032;-74
2022/12/12 03:08:14;;;;;;;34.30;12.60;;;-5.50;99.90;;;;;;5052589;28;20036;-73
2022/12/12 03:10:56;;;;;;;37.13;14.13;;;-5.50;99.90;;;;;;5052753;28;20278;-73
2022/12/12 03:13:50;;;;;;;37.83;13.25;;;-5.50;99.90;;;;;;5052377;28;20028;-73
2022/12/12 03:17:11;;;;;;;45.30;18.48;;;-5.50;99.90;;;;;;5052413;28;20029;-73
2022/12/12 03:20:09;;;;;;;38.50;12.93;;;-5.60;99.90;;;;;;5039854;28;20041;-74
2022/12/12 03:22:43;;;;;;;31.20;11.50;;;-5.60;99.90;;;;;;5052115;28;20243;-73
2022/12/12 03:25:18;;;;;;;30.63;12.27;;;-5.60;99.90;;;;;;5052156;28;20021;-73
2022/12/12 03:28:10;;;;;;;32.63;13.48;;;-5.50;99.90;;;;;;5051958;28;20029;-74
2022/12/12 03:30:47;;;;;;;39.40;13.20;;;-5.50;99.90;;;;;;5052256;28;20020;-74
2022/12/12 03:33:34;;;;;;;42.90;15.77;;;-5.50;99.90;;;;;;5052026;28;20470;-74
2022/12/12 03:36:05;;;;;;;32.47;11.95;;;-5.50;99.90;;;;;;5051959;28;20090;-73
2022/12/12 03:38:35;;;;;;;45.33;14.48;;;-5.50;99.90;;;;;;5050529;28;20120;-74
2022/12/12 03:41:05;;;;;;;38.22;12.82;;;-5.50;99.90;;;;;;5051993;28;20096;-74
2022/12/12 03:43:44;;;;;;;37.05;12.10;;;-5.60;99.90;;;;;;5051036;28;20375;-74
2022/12/12 03:46:10;;;;;;;32.40;11.82;;;;;;;;;;5051508;28;20036;-74
2022/12/12 03:49:02;;;;;;;31.73;13.57;;;-5.50;99.90;;;;;;5051897;28;20013;-75
2022/12/12 03:51:35;;;;;;;34.45;14.63;;;-5.60;99.90;;;;;;5031897;28;20608;-74
2022/12/12 03:54:16;;;;;;;35.17;13.98;;;-5.60;99.90;;;;;;5050059;28;20021;-74
2022/12/12 03:56:59;;;;;;;34.42;15.55;;;-5.60;99.90;;;;;;5051983;28;20029;-74
2022/12/12 03:59:38;;;;;;;33.30;14.38;;;-5.70;99.90;;;;;;5049983;28;20404;-73
2022/12/12 04:02:18;;;;;;;32.63;13.07;;;-5.70;99.90;;;;;;5051985;28;20021;-74
2022/12/12 04:05:01;;;;;;;40.60;15.98;;;-5.50;99.90;;;;;;5049849;28;20078;-74
2022/12/12 04:07:37;;;;;;;28.55;13.43;;;-5.70;99.90;;;;;;5051305;28;20155;-74
2022/12/12 04:13:04;;;;;;;33.47;14.85;;;-5.70;99.90;;;;;;5051045;28;20508;-74
2022/12/12 04:15:52;;;;;;;32.83;13.20;;;-5.70;99.90;;;;;;5051376;28;20163;-73
2022/12/12 04:18:40;;;;;;;25.95;10.63;;;-5.70;99.90;;;;;;5051485;28;20143;-74
2022/12/12 04:24:45;;;;;;;38.75;12.48;;;-5.80;99.90;;;;;;5051239;28;20095;-74
2022/12/12 04:27:27;;;;;;;32.38;11.95;;;-5.80;99.90;;;;;;5064937;28;20175;-74
2022/12/12 04:30:07;;;;;;;29.90;12.77;;;-5.70;99.90;;;;;;5048555;28;20130;-74
2022/12/12 04:32:44;;;;;;;32.63;12.73;;;-5.80;99.90;;;;;;5048849;28;20031;-74
2022/12/12 04:35:21;;;;;;;33.85;12.07;;;-5.80;99.90;;;;;;5049290;28;20170;-74
2022/12/12 04:37:48;;;;;;;39.60;13.63;;;-5.90;99.90;;;;;;5049131;28;20068;-73
2022/12/12 04:40:42;;;;;;;32.13;14.55;;;-5.80;99.90;;;;;;5048813;28;20205;-73
2022/12/12 04:43:19;;;;;;;39.30;13.70;;;-5.90;99.90;;;;;;5047451;28;20311;-74
2022/12/12 04:45:58;;;;;;;30.02;12.75;;;-5.90;99.90;;;;;;5048948;28;20075;-74
2022/12/12 04:48:39;;;;;;;33.33;12.73;;;-5.90;99.90;;;;;;5048819;28;20453;-74
2022/12/12 04:51:08;;;;;;;30.98;11.23;;;-6.00;99.90;;;;;;5048751;28;20646;-74
2022/12/12 04:53:39;;;;;;;27.40;12.07;;;-5.80;99.90;;;;;;5049468;28;20458;-73
2022/12/12 04:56:10;;;;;;;30.48;12.63;;;-6.00;99.90;;;;;;5049209;28;20036;-73
2022/12/12 04:58:37;;;;;;;30.30;12.45;;;-6.00;99.90;;;;;;5049429;28;20029;-74
2022/12/12 05:01:07;;;;;;;36.35;13.85;;;-5.80;99.90;;;;;;5049917;28;20060;-74
2022/12/12 05:03:44;;;;;;;34.53;14.48;;;-6.10;99.90;;;;;;5050808;28;20473;-74
2022/12/12 05:06:13;;;;;;;37.70;13.38;;;-6.00;99.90;;;;;;5049703;28;20056;-74
2022/12/12 05:08:40;;;;;;;;;;;-6.00;99.90;;;;;;5050682;28;20520;-74
2022/12/12 05:11:06;;;;;;;55.03;13.75;;;-6.20;99.90;;;;;;5050265;28;19905;-74
2022/12/12 05:13:36;;;;;;;38.90;14.95;;;-5.90;99.90;;;;;;5049657;28;20128;-74
2022/12/12 05:16:13;;;;;;;50.17;15.55;;;-6.10;99.90;;;;;;5049862;28;20366;-74
2022/12/12 05:18:39;;;;;;;45.00;16.33;;;-6.20;99.90;;;;;;5050306;28;20036;-74
2022/12/12 05:21:04;;;;;;;37.67;14.27;;;-6.10;99.90;;;;;;5048806;28;20528;-74
2022/12/12 05:23:30;;;;;;;35.13;15.30;;;;;;;;;;5049910;28;20064;-73
2022/12/12 05:25:56;;;;;;;34.20;15.15;;;;;;;;;;5050126;28;20474;-73
2022/12/12 05:28:22;;;;;;;43.45;12.05;;;;;;;;;;5050110;28;20040;-74
2022/12/12 05:30:48;;;;;;;36.20;12.55;;;;;;;;;;5050146;28;20028;-74
2022/12/12 05:33:14;;;;;;;36.22;13.80;;;-6.20;99.90;;;;;;5050201;28;20445;-74
2022/12/12 05:35:40;;;;;;;47.22;15.25;;;-6.30;99.90;;;;;;5049175;28;20025;-74
2022/12/12 05:38:06;;;;;;;39.03;14.50;;;;;;;;;;5050487;28;20044;-74
2022/12/12 05:40:32;;;;;;;38.30;12.38;;;;;;;;;;5050083;28;20025;-74
2022/12/12 05:42:58;;;;;;;32.83;14.27;;;;;;;;;;5049736;28;20032;-74
2022/12/12 05:45:23;;;;;;;44.78;14.32;;;-6.10;99.90;;;;;;5050247;28;20025;-73
2022/12/12 05:47:49;;;;;;;34.63;15.05;;;-6.20;99.90;;;;;;5050240;28;20024;-74
2022/12/12 05:50:15;;;;;;;34.78;14.43;;;-6.00;99.90;;;;;;5049250;28;20389;-74
2022/12/12 05:52:40;;;;;;;32.42;12.63;;;-6.00;99.90;;;;;;5050154;28;20021;-75
2022/12/12 05:55:06;;;;;;;30.33;12.77;;;-6.20;99.90;;;;;;5048151;28;20489;-73
2022/12/12 05:57:32;;;;;;;35.25;13.95;;;-6.20;99.90;;;;;;5046457;28;20528;-74
2022/12/12 05:59:57;;;;;;;30.02;10.85;;;-6.20;99.90;;;;;;5047010;28;20104;-74
2022/12/12 06:02:23;;;;;;;34.78;13.57;;;-6.10;99.90;;;;;;5047854;28;20136;-73
2022/12/12 06:04:49;;;;;;;36.00;13.88;;;-6.10;99.90;;;;;;5048206;28;20025;-74
2022/12/12 06:07:14;;;;;;;38.13;12.65;;;-6.30;99.90;;;;;;5048598;28;20100;-74
2022/12/12 06:09:40;;;;;;;39.10;13.18;;;-5.80;99.90;;;;;;5048137;28;20072;-74
2022/12/12 06:12:06;;;;;;;39.65;13.52;;;-6.10;99.90;;;;;;5048577;28;20021;-73
2022/12/12 06:14:32;;;;;;;37.40;13.80;;;;;;;;;;5049995;28;20072;-75
2022/12/12 06:16:58;;;;;;;42.28;14.27;;;;;;;;;;5048934;28;20761;-74
2022/12/12 06:19:24;;;;;;;58.72;20.52;;;;;;;;;;5054026;28;20045;-74
2022/12/12 06:21:50;;;;;;;57.33;19.88;;;;;;;;;;5054303;28;20044;-74
2022/12/12 06:24:15;;;;;;;43.08;14.02;;;-6.20;99.90;;;;;;5054176;28;20382;-73
2022/12/12 06:26:41;;;;;;;40.08;13.20;;;;;;;;;;5053800;28;20032;-75
2022/12/12 06:29:07;;;;;;;37.40;14.32;;;;;;;;;;5052990;28;20025;-74
2022/12/12 06:31:33;;;;;;;42.58;15.45;;;;;;;;;;5052972;28;20079;-74
2022/12/12 06:33:59;;;;;;;47.28;18.42;;;;;;;;;;5051629;28;20025;-74
2022/12/12 06:36:25;;;;;;;39.10;14.13;;;-6.40;99.90;;;;;;5053592;28;20078;-74
2022/12/12 06:38:52;;;;;;;33.40;12.38;;;-6.30;99.90;;;;;;5051579;28;20068;-74
2022/12/12 06:41:18;;;;;;;34.25;14.43;;;-6.20;99.90;;;;;;5051900;28;20374;-73
2022/12/12 06:43:45;;;;;;;35.13;15.48;;;;;;;;;;5052899;28;20028;-73
2022/12/12 06:46:20;;;;;;;31.65;12.73;;;-6.40;99.90;;;;;;5052748;28;20046;-74
2022/12/12 06:48:46;;;;;;;34.13;15.40;;;-6.50;99.90;;;;;;5052965;28;20029;-74
2022/12/12 06:51:17;;;;;;;48.03;17.17;;;-6.10;99.90;;;;;;5052739;28;20051;-74
2022/12/12 06:53:43;;;;;;;36.55;11.50;;;-6.40;99.90;;;;;;5051264;28;20025;-74
2022/12/12 06:56:12;;;;;;;35.78;14.68;;;-6.50;99.90;;;;;;5052951;28;20035;-75
2022/12/12 06:58:38;;;;;;;34.17;13.13;;;-6.30;99.90;;;;;;5051173;28;20108;-74
2022/12/12 07:01:05;;;;;;;33.38;11.40;;;-6.60;99.90;;;;;;5052809;28;20022;-73
2022/12/12 07:03:31;;;;;;;38.75;13.82;;;;;;;;;;5053223;28;20469;-75
2022/12/12 07:05:57;;;;;;;39.22;14.32;;;;;;;;;;5052514;28;20025;-74
2022/12/12 07:08:22;;;;;;;41.90;12.52;;;-6.50;99.90;;;;;;5052298;28;20497;-73
2022/12/12 07:10:48;;;;;;;49.28;14.15;;;-6.60;99.90;;;;;;5052679;28;20055;-73
2022/12/12 07:13:14;;;;;;;34.05;13.77;;;-6.60;99.90;;;;;;5050939;28;20028;-73
2022/12/12 07:15:44;;;;;;;52.78;16.75;;;-6.50;99.90;;;;;;5052202;28;20017;-73
2022/12/12 07:18:11;;;;;;;28.23;10.35;;;-6.50;99.90;;;;;;5051899;28;20041;-73
2022/12/12 07:20:41;;;;;;;43.13;17.23;;;-6.40;99.90;;;;;;5050902;28;20386;-74
2022/12/12 07:23:07;;;;;;;58.15;18.17;;;-6.30;99.90;;;;;;5049673;28;20101;-76
2022/12/12 07:25:37;;;;;;;45.22;14.95;;;-6.40;99.90;;;;;;5050580;28;20028;-76
2022/12/12 07:28:02;;;;;;;;;;;-6.40;99.90;;;;;;5053377;28;20036;-78
2022/12/12 07:30:28;;;;;;;55.40;16.02;;;;;;;;;;5053911;28;19905;-76
2022/12/12 07:32:54;;;;;;;38.25;13.45;;;;;;;;;;5049446;28;20056;-77
2022/12/12 07:35:21;;;;;;;46.83;19.70;;;;;;;;;;5049530;28;20028;-77
2022/12/12 07:37:47;;;;;;;39.47;13.95;;;;;;;;;;5052471;28;20033;-78
2022/12/12 07:40:13;;;;;;;53.75;21.17;;;;;;;;;;5050693;28;20040;-75
2022/12/12 07:42:39;;;;;;;45.60;16.33;;;-6.20;99.90;;;;;;5071000;28;20070;-75
2022/12/12 07:45:05;;;;;;;41.63;14.55;;;-6.10;99.90;;;;;;5068589;28;20028;-76
2022/12/12 07:47:31;;;;;;;51.25;17.00;;;;;;;;;;5069815;28;20043;-74
2022/12/12 07:49:57;;;;;;;45.60;17.40;;;-5.80;99.90;;;;;;5069351;28;20016;-77
2022/12/12 07:52:23;;;;;;;42.50;16.80;;;;;;;;;;5068642;28;20492;-77
2022/12/12 07:54:49;;;;;;;40.10;14.27;;;;;;;;;;5070742;28;20444;-77
2022/12/12 07:57:15;;;;;;;46.22;16.27;;;;;;;;;;5068586;28;20032;-77
2022/12/12 07:59:41;;;;;;;40.38;14.95;;;;;;;;;;5069675;28;20029;-76
2022/12/12 08:02:07;;;;;;;38.80;12.75;;;;;;;;;;5068426;28;20016;-73
2022/12/12 08:04:33;;;;;;;38.30;14.63;;;;;;;;;;5068692;28;20029;-73
2022/12/12 08:06:59;;;;;;;56.85;16.58;;;;;;;;;;5068277;28;20095;-73
2022/12/12 08:09:25;;;;;;;54.35;16.33;;;;;;;;;;5068319;28;20459;-77
2022/12/12 08:11:51;;;;;;;36.50;13.93;;;;;;;;;;5067262;28;20025;-78
2022/12/12 08:14:17;;;;;;;31.42;14.48;;;;;;;;;;5069338;28;20108;-74
2022/12/12 08:16:42;;;;;;;38.47;12.35;;;-5.70;99.90;;;;;;5068550;28;20099;-74
2022/12/12 08:19:08;;;;;;;32.75;13.38;;;-5.50;99.90;;;;;;5051163;28;20111;-75
2022/12/12 08:21:34;;;;;;;31.20;10.95;;;-5.40;99.90;;;;;;5051287;28;20060;-76
2022/12/12 08:24:01;;;;;;;46.63;17.30;;;-5.40;99.90;;;;;;5049847;28;20032;-75
2022/12/12 08:26:28;;;;;;;42.60;15.80;;;-5.40;99.90;;;;;;5049628;28;20060;-77
2022/12/12 08:28:54;;;;;;;39.60;19.42;;;-5.10;99.90;;;;;;5049695;28;20078;-76
2022/12/12 08:31:21;;;;;;;37.50;15.82;;;-5.10;99.90;;;;;;5049522;28;20033;-77
2022/12/12 08:33:49;;;;;;;48.60;15.85;;;-2.20;99.90;;;;;;5050145;28;20435;-75
2022/12/12 08:36:17;;;;;;;45.42;14.68;;;-4.90;99.90;;;;;;5049500;28;20024;-77
2022/12/12 08:38:43;;;;;;;44.87;14.77;;;-4.80;99.90;;;;;;5047599;28;20356;-77
2022/12/12 08:41:10;;;;;;;42.63;14.25;;;-4.90;99.90;;;;;;5046059;28;20593;-76
2022/12/12 08:43:37;;;;;;;26.20;11.32;;;-4.80;99.90;;;;;;5048114;28;20454;-75
2022/12/12 08:46:03;;;;;;;40.63;16.98;;;;;;;;;;5046331;28;20054;-77
2022/12/12 08:48:29;;;;;;;37.22;14.45;;;;;;;;;;5048095;28;20035;-75
2022/12/12 08:50:56;;;;;;;48.42;16.10;;;;;;;;;;5048895;28;20607;-76
2022/12/12 08:53:23;;;;;;;42.03;16.30;;;-4.70;99.90;;;;;;5048012;28;20033;-76
2022/12/12 08:55:49;;;;;;;32.25;10.77;;;;;;;;;;5047797;28;20024;-76
2022/12/12 08:58:15;;;;;;;30.52;12.57;;;;;;;;;;5045855;28;20052;-77
2022/12/12 09:00:41;;;;;;;32.60;15.65;;;;;;;;;;5048567;28;20024;-76
2022/12/12 09:03:07;;;;;;;39.40;15.35;;;;;;;;;;5049319;28;20029;-76
2022/12/12 09:05:33;;;;;;;32.60;13.40;;;-4.60;99.90;;;;;;5046663;28;20504;-77
2022/12/12 09:07:59;;;;;;;42.17;15.75;;;;;;;;;;5048686;28;20429;-76
2022/12/12 09:10:26;;;;;;;32.35;13.20;;;-4.10;99.90;;;;;;5048886;28;20024;-77
2022/12/12 09:12:53;;;;;;;30.02;12.40;;;-4.00;99.90;;;;;;5050904;28;20619;-78
2022/12/12 09:15:19;;;;;;;34.05;13.23;;;-3.90;99.90;;;;;;5048913;28;20079;-76
2022/12/12 09:17:45;;;;;;;33.78;11.20;;;-3.70;99.90;;;;;;5056715;28;20059;-77
2022/12/12 09:20:12;;;;;;;30.38;14.20;;;-3.50;99.90;;;;;;5071159;28;20055;-78
2022/12/12 09:22:38;;;;;;;34.42;13.40;;;;;;;;;;5070838;28;20055;-76
2022/12/12 09:25:04;;;;;;;32.67;14.55;;;-2.80;99.90;;;;;;5048544;28;20025;-77
2022/12/12 09:27:30;;;;;;;25.50;9.65;;;;;;;;;;5049663;28;20029;-76
2022/12/12 09:29:56;;;;;;;24.75;11.75;;;;;;;;;;5052579;28;20267;-78
2022/12/12 09:32:23;;;;;;;29.85;11.70;;;;;;;;;;5049506;28;20304;-75
2022/12/12 09:34:48;;;;;;;30.85;13.60;;;-2.50;99.90;;;;;;5050133;28;20021;-76
2022/12/12 09:37:14;;;;;;;34.22;13.45;;;-2.50;99.90;;;;;;5051888;28;20040;-76
2022/12/12 09:39:40;;;;;;;29.15;10.40;;;-2.80;99.90;;;;;;5049624;28;20469;-76
2022/12/12 09:42:22;;;;;;;20.83;11.95;;;-2.70;99.90;;;;;;5045619;28;20104;-75
2022/12/12 09:44:51;;;;;;;27.77;11.25;;;-2.60;99.90;;;;;;5049215;28;20094;-76
2022/12/12 09:47:39;;;;;;;32.38;11.38;;;-2.70;99.90;;;;;;5048701;28;20041;-75
2022/12/12 09:50:29;;;;;;;27.45;11.25;;;-2.80;99.90;;;;;;5039557;28;20025;-76
2022/12/12 09:53:03;;;;;;;26.80;9.82;;;-3.00;99.90;;;;;;5046754;28;20055;-77
2022/12/12 09:55:45;;;;;;;31.65;14.43;;;-2.90;99.90;;;;;;5049578;28;20024;-76
2022/12/12 09:58:29;;;;;;;26.60;10.82;;;-2.60;99.90;;;;;;5049083;28;20040;-76
2022/12/12 10:01:14;;;;;;;32.92;15.23;;;-2.50;99.90;;;;;;5050820;28;20107;-76
2022/12/12 10:03:40;;;;;;;31.27;12.90;;;-2.60;99.90;;;;;;5048961;28;20083;-77
2022/12/12 10:06:09;;;;;;;29.85;11.07;;;-2.80;99.90;;;;;;5048443;28;20502;-77
2022/12/12 10:08:56;;;;;;;29.07;12.40;;;-2.70;99.90;;;;;;5050032;28;20048;-76
2022/12/12 10:14:19;;;;;;;34.00;15.02;;;-2.20;99.90;;;;;;5051270;28;20233;-77
2022/12/12 10:16:46;;;;;;;30.30;12.88;;;-2.20;99.90;;;;;;5050365;28;20103;-76
2022/12/12 10:19:21;;;;;;;35.58;14.05;;;-2.40;99.90;;;;;;5071043;28;20115;-76
2022/12/12 10:21:50;;;;;;;29.20;11.02;;;-2.30;99.90;;;;;;5071126;28;20114;-77
2022/12/12 10:24:27;;;;;;;28.80;11.48;;;-1.80;99.90;;;;;;5071378;28;20028;-76
2022/12/12 10:26:53;;;;;;;36.05;12.57;;;-1.50;99.90;;;;;;5071109;28;20058;-76
2022/12/12 10:29:21;;;;;;;27.83;11.73;;;-1.80;99.90;;;;;;5070229;28;20126;-76
2022/12/12 10:31:59;;;;;;;27.02;11.60;;;-1.90;99.90;;;;;;5069515;28;20047;-78
2022/12/12 10:34:24;;;;;;;23.75;9.30;;;-1.60;99.90;;;;;;5069363;28;20063;-77
2022/12/12 10:36:50;;;;;;;30.15;14.60;;;;;;;;;;5070445;28;20048;-74
2022/12/12 10:39:53;;;;;;;30.35;9.68;;;-1.10;99.90;;;;;;5068555;28;20032;-75
2022/12/12 10:42:27;;;;;;;25.27;9.85;;;-1.20;99.90;;;;;;5070223;28;20036;-76
2022/12/12 10:45:35;;;;;;;25.77;9.75;;;-1.40;99.90;;;;;;5069816;28;20473;-75
2022/12/12 10:48:01;;;;;;;23.52;9.23;;;;;;;;;;5071962;28;20017;-76
2022/12/12 10:50:27;;;;;;;17.55;9.18;;;;;;;;;;5069635;28;20037;-76
2022/12/12 10:52:53;;;;;;;22.63;8.60;;;;;;;;;;5068820;28;20029;-75
2022/12/12 10:55:36;;;;;;;24.08;8.98;;;-1.90;99.90;;;;;;5067751;28;20035;-74
2022/12/12 10:58:04;;;;;;;23.65;10.02;;;-2.30;99.90;;;;;;5069845;28;20029;-74
2022/12/12 11:00:37;;;;;;;23.17;9.23;;;-2.10;99.90;;;;;;5068682;28;20024;-74
2022/12/12 11:03:20;;;;;;;27.65;9.52;;;-2.10;99.90;;;;;;5069345;28;20025;-75
2022/12/12 11:05:46;;;;;;;30.10;11.27;;;-2.20;99.90;;;;;;5068748;28;20028;-75
2022/12/12 11:08:24;;;;;;;17.98;9.18;;;-2.30;99.90;;;;;;5064150;28;20051;-76
2022/12/12 11:11:04;;;;;;;23.15;10.27;;;-2.40;99.90;;;;;;5085375;28;20052;-77
2022/12/12 11:13:30;;;;;;;26.08;8.60;;;;;;;;;;5075371;28;20096;-77
2022/12/12 11:16:03;;;;;;;24.33;9.35;;;-2.50;99.90;;;;;;5049262;28;20083;-76
2022/12/12 11:18:29;;;;;;;18.83;9.82;;;;;;;;;;5064490;28;20119;-77
2022/12/12 11:21:09;;;;;;;19.67;9.27;;;-2.40;99.90;;;;;;5072000;28;20132;-77
2022/12/12 11:23:42;;;;;;;23.13;9.90;;;-2.60;99.90;;;;;;5069509;28;20044;-77
2022/12/12 11:26:13;;;;;;;30.42;11.23;;;;;;;;;;5069539;28;20108;-76
2022/12/12 11:28:40;;;;;;;23.42;10.48;;;;;;;;;;5068754;28;20469;-76
2022/12/12 11:31:16;;;;;;;34.20;12.63;;;-2.30;99.90;;;;;;5067372;28;20033;-77
2022/12/12 11:33:55;;;;;;;32.95;12.00;;;-2.30;99.90;;;;;;5068381;28;20039;-75
2022/12/12 11:36:34;;;;;;;22.92;9.35;;;-2.60;99.90;;;;;;5068999;28;20384;-74
2022/12/12 11:39:10;;;;;;;29.92;10.70;;;-2.60;99.90;;;;;;5069149;28;20517;-77
2022/12/12 11:42:11;;;;;;;28.23;12.07;;;-2.80;99.90;;;;;;5068625;28;20025;-75
2022/12/12 11:44:38;;;;;;;21.65;8.93;;;-2.90;99.90;;;;;;5042448;28;20444;-74
2022/12/12 11:47:40;;;;;;;19.95;8.35;;;-2.70;99.90;;;;;;5069482;28;20394;-75
2022/12/12 11:50:20;;;;;;;20.38;9.48;;;-2.50;99.90;;;;;;5046695;28;20068;-75
2022/12/12 11:52:46;;;;;;;;;;;-2.50;99.90;;;;;;5068312;28;20024;-76
2022/12/12 11:55:18;;;;;;;28.45;10.63;;;-1.60;99.90;;;;;;5067348;28;19904;-76
2022/12/12 11:58:07;;;;;;;24.95;11.38;;;-1.70;99.90;;;;;;5053780;28;20109;-76
2022/12/12 12:01:14;;;;;;;25.02;11.23;;;-1.30;99.90;;;;;;5069143;28;20028;-77
2022/12/12 12:03:49;;;;;;;25.15;11.75;;;-1.00;99.90;;;;;;5061505;28;20040;-77
2022/12/12 12:06:47;;;;;;;24.80;9.60;;;-1.30;99.90;;;;;;5059644;28;20055;-74
2022/12/12 12:09:36;;;;;;;33.63;13.45;;;-1.70;99.90;;;;;;5055448;28;20623;-78
2022/12/12 12:12:34;;;;;;;27.83;9.60;;;-1.70;99.90;;;;;;5058709;28;20029;-76
2022/12/12 12:15:05;;;;;;;23.33;9.30;;;-2.00;99.90;;;;;;5052801;28;20347;-75
2022/12/12 12:18:09;;;;;;;22.17;9.25;;;-2.00;99.90;;;;;;5060236;28;20108;-75
2022/12/12 12:20:53;;;;;;;29.35;11.35;;;-2.00;99.90;;;;;;5046364;28;21027;-73
2022/12/12 12:23:30;;;;;;;22.10;10.05;;;-1.60;99.90;;;;;;5070780;28;20290;-76
2022/12/12 12:26:33;;;;;;;23.02;8.68;;;-1.40;99.90;;;;;;5048388;28;20029;-76
2022/12/12 12:29:05;;;;;;;26.10;10.90;;;-1.30;99.90;;;;;;5049593;28;20497;-76
2022/12/12 12:31:31;;;;;;;17.48;10.45;;;-1.50;99.90;;;;;;5049729;28;20039;-77
2022/12/12 12:34:17;;;;;;;23.73;9.68;;;-1.40;99.90;;;;;;5049858;28;20053;-76
2022/12/12 12:36:43;;;;;;;24.75;11.55;;;;;;;;;;5049404;28;20029;-75
2022/12/12 12:39:35;;;;;;;22.92;9.98;;;-1.40;99.90;;;;;;5046351;28;20431;-75
2022/12/12 12:42:01;;;;;;;21.73;11.25;;;;;;;;;;5047487;28;20037;-75
2022/12/12 12:44:42;;;;;;;24.05;11.10;;;-1.70;99.90;;;;;;5047993;28;20482;-75
2022/12/12 12:47:14;;;;;;;22.75;9.38;;;-1.50;99.90;;;;;;5046668;28;20619;-75
2022/12/12 12:50:02;;;;;;;21.52;10.38;;;-1.60;99.90;;;;;;5049328;28;20029;-75
2022/12/12 12:52:42;;;;;;;20.35;9.00;;;-1.10;99.90;;;;;;5048006;28;20044;-75
2022/12/12 12:55:17;;;;;;;24.05;8.45;;;-1.00;99.90;;;;;;5049695;28;20441;-75
2022/12/12 12:57:45;;;;;;;25.00;8.70;;;-0.80;99.90;;;;;;5048824;28;20021;-76
2022/12/12 13:00:18;;;;;;;18.80;8.63;;;-0.80;99.90;;;;;;5048887;28;20037;-76
2022/12/12 13:02:59;;;;;;;19.55;8.43;;;-0.80;99.90;;;;;;5049521;28;20572;-75
2022/12/12 13:05:45;;;;;;;24.85;11.15;;;-1.00;99.90;;;;;;5048816;28;20025;-76
2022/12/12 13:08:31;;;;;;;28.80;11.93;;;-1.30;99.90;;;;;;5045846;28;20174;-76
2022/12/12 13:11:08;;;;;;;23.58;10.07;;;-1.50;99.90;;;;;;5047727;28;20470;-75
2022/12/12 13:13:38;;;;;;;25.40;12.02;;;-1.50;99.90;;;;;;5047371;28;20078;-77
2022/12/12 13:16:10;;;;;;;19.45;9.60;;;-1.50;99.90;;;;;;5047141;28;20029;-76
2022/12/12 13:18:38;;;;;;;17.30;8.27;;;-1.30;99.90;;;;;;5066069;28;20032;-76
2022/12/12 13:21:10;;;;;;;20.95;9.18;;;-1.20;99.90;;;;;;5070901;28;20469;-76
2022/12/12 13:23:36;;;;;;;24.30;10.10;;;;;;;;;;5068956;28;20093;-77
2022/12/12 13:26:11;;;;;;;20.05;8.35;;;-1.00;99.90;;;;;;5069287;28;20569;-78
2022/12/12 13:28:49;;;;;;;27.15;10.43;;;-1.10;99.90;;;;;;5065417;28;20433;-77
2022/12/12 13:31:35;;;;;;;23.67;9.65;;;-1.10;99.90;;;;;;5064773;28;20021;-77